Latest Weather Observations for Griffith

IDN60801

Issued at 7:02 am EST Thursday 24 August 2017 (issued every 30 minutes, with the page automatically refreshed every 10 minutes)

About weather observations | Map of weather stations | Latest weather observations for NSW | Other Formats
Station Details ID: 075041 Name: GRIFFITH AIRPORT AWS Lat: -34.25 Lon: 146.07 Height: 134.0 m
Data from the previous 72 hours. | See also: Recent months at Griffith
Date/Time
EST
Temp
°C
App
Temp
°C
Dew
Point
°C
Rel
Hum
%
Delta-T
°C
Wind Press
QNH
hPa
Press
MSL
hPa
Rain since
9am
mm
Dir  Spd
km/h
Gust
km/h
Spd
kts
Gust
kts
24/07:00am 0.8 -3.2 0.7 99 0.0 WNW 11 13 6 7 1021.7 1021.9 0.0
24/06:47am 1.1 -2.4 1.0 99 0.0 NW 9 9 5 5 1021.6 1021.8 0.0
24/06:30am 2.7 -0.6 2.6 99 0.0 NW 9 13 5 7 1021.3 1021.5 0.0
24/06:20am 2.5 -0.8 2.4 99 0.0 NW 9 11 5 6 1021.2 1021.4 0.0
24/06:02am 2.0 -1.0 1.9 99 0.0 NNW 7 9 4 5 1021.1 1021.3 0.0
24/06:00am 2.4 -0.6 2.3 99 0.0 NNW 7 9 4 5 1021.1 1021.3 0.0
24/05:30am 3.3 0.5 3.2 99 0.0 WSW 7 7 4 4 1020.9 1021.1 0.0
24/05:00am 4.1 0.7 4.0 99 0.0 WSW 11 13 6 7 1020.8 1021.0 0.0
24/04:30am 4.6 1.3 4.5 99 0.0 SW 11 13 6 7 1020.7 1020.9 0.0
24/04:02am 5.6 2.1 5.5 99 0.0 SW 13 15 7 8 1020.5 1020.7 0.0
24/04:00am 5.7 2.2 5.6 99 0.0 SW 13 15 7 8 1020.5 1020.7 0.0
24/03:30am 6.9 2.9 6.8 99 0.0 SW 17 22 9 12 1020.4 1020.6 0.0
24/03:00am 7.1 2.8 7.0 99 0.0 SW 19 28 10 15 1020.3 1020.5 0.0
24/02:54am 6.7 3.4 6.6 99 0.0 WSW 13 20 7 11 1020.3 1020.5 0.0
24/02:44am 5.1 2.6 5.0 99 0.0 WSW 7 11 4 6 1020.3 1020.5 0.0
24/02:30am 5.0 2.7 4.6 97 0.2 W 6 7 3 4 1020.3 1020.5 0.0
24/02:10am 5.4 3.1 5.0 97 0.2 WNW 6 6 3 3 1020.3 1020.5 0.0
24/02:00am 6.0 3.8 5.4 96 0.3 WNW 6 7 3 4 1020.3 1020.5 0.0
24/01:30am 6.9 4.2 5.5 91 0.6 W 9 9 5 5 1020.3 1020.5 0.0
24/01:00am 8.0 4.7 6.5 90 0.7 WSW 13 17 7 9 1020.4 1020.6 0.0
24/12:30am 8.3 4.7 5.2 81 1.4 WSW 13 15 7 8 1020.5 1020.7 0.0
24/12:00am 9.4 5.9 5.6 77 1.7 WSW 13 17 7 9 1020.5 1020.7 0.0
 
Date/Time
EST
Temp
°C
App
Temp
°C
Dew
Point
°C
Rel
Hum
%
Delta-T
°C
Wind Press
QNH
hPa
Press
MSL
hPa
Rain since
9am
mm
Dir  Spd
km/h
Gust
km/h
Spd
kts
Gust
kts
23/11:30pm 9.5 7.6 5.1 74 2.0 WNW 4 7 2 4 1020.4 1020.6 0.0
23/11:00pm 9.7 7.3 5.1 73 2.1 W 7 13 4 7 1020.3 1020.5 0.0
23/10:30pm 9.7 8.2 5.1 73 2.1 SW 2 6 1 3 1020.1 1020.3 0.0
23/10:00pm 8.9 7.9 5.5 79 1.5 CALM 0 0 0 0 1020.1 1020.3 0.0
23/09:30pm 8.2 6.9 4.2 76 1.8 CALM 0 0 0 0 1020.1 1020.3 0.0
23/09:00pm 8.6 7.4 4.8 77 1.7 CALM 0 0 0 0 1020.1 1020.3 0.0
23/08:30pm 6.0 4.4 2.6 79 1.4 CALM 0 0 0 0 1020.1 1020.3 0.0
23/08:00pm 6.5 4.8 1.6 71 2.0 CALM 0 0 0 0 1020.1 1020.3 0.0
23/07:30pm 7.3 5.6 1.8 68 2.3 CALM 0 0 0 0 1019.8 1020.0 0.0
23/07:00pm 9.1 6.8 0.6 55 3.4 WNW 2 6 1 3 1019.8 1020.0 0.0
23/06:30pm 13.0 9.8 2.8 50 4.5 WSW 9 15 5 8 1019.6 1019.8 0.0
23/06:00pm 14.3 9.4 2.2 44 5.3 SW 17 20 9 11 1019.6 1019.8 0.0
23/05:30pm 15.3 9.2 2.5 42 5.8 WSW 24 30 13 16 1019.4 1019.6 0.0
23/05:00pm 15.6 10.2 2.7 42 5.8 WSW 20 28 11 15 1019.1 1019.3 0.0
23/04:30pm 15.7 10.9 2.8 42 5.9 WSW 17 20 9 11 1018.8 1019.0 0.0
23/04:00pm 16.0 10.7 2.1 39 6.2 W 19 24 10 13 1018.7 1018.9 0.0
23/03:30pm 17.8 12.5 2.9 37 6.9 W 20 28 11 15 1018.5 1018.7 0.0
23/03:00pm 17.2 12.5 3.1 39 6.5 SW 17 28 9 15 1018.5 1018.7 0.0
23/02:30pm 16.7 12.7 3.1 40 6.3 WSW 13 19 7 10 1018.5 1018.7 0.0
23/02:00pm 17.4 12.8 3.7 40 6.4 W 17 24 9 13 1018.7 1018.9 0.0
23/01:30pm 17.0 13.5 3.3 40 6.4 SSW 11 20 6 11 1018.9 1019.1 0.0
23/01:00pm 17.4 12.3 3.3 39 6.5 WSW 19 24 10 13 1019.2 1019.4 0.0
23/12:30pm 17.1 14.0 3.8 41 6.2 SSW 9 24 5 13 1019.6 1019.8 0.0
23/12:00pm 16.6 12.8 3.7 42 6.0 SSW 13 20 7 11 1020.0 1020.2 0.0
23/11:30am 15.6 12.5 3.4 44 5.6 SSW 9 15 5 8 1020.3 1020.5 0.0
23/11:00am 15.5 13.1 5.1 50 4.9 W 7 15 4 8 1020.6 1020.8 0.0
23/10:30am 15.1 13.4 4.2 48 5.1 W 2 7 1 4 1020.6 1020.8 0.0
23/10:00am 13.6 11.5 3.7 51 4.5 WSW 4 9 2 5 1020.9 1021.1 0.0
23/09:30am 12.5 10.5 4.5 58 3.7 WNW 4 7 2 4 1021.0 1021.2 0.0
23/09:00am 11.4 10.2 4.6 63 3.1 CALM 0 2 0 1 1021.0 1021.2 0.0
23/08:30am 8.9 6.8 4.1 72 2.1 ESE 4 7 2 4 1020.8 1021.0 0.0
23/08:00am 7.3 4.3 4.1 80 1.4 ESE 9 11 5 6 1020.4 1020.6 0.0
23/07:30am 5.4 2.0 3.9 90 0.6 ESE 11 15 6 8 1020.2 1020.4 0.0
23/07:00am 4.3 0.0 3.4 94 0.4 ESE 15 17 8 9 1020.0 1020.2 0.0
23/06:30am 3.0 -0.8 2.0 93 0.4 ESE 11 13 6 7 1019.9 1020.1 0.0
23/06:00am 3.2 0.2 2.3 94 0.4 ESE 7 9 4 5 1019.9 1020.1 0.0
23/05:30am 2.0 0.1 0.7 91 0.5 CALM 0 0 0 0 1019.8 1020.0 0.0
23/05:00am 3.0 1.3 2.0 93 0.4 CALM 0 0 0 0 1019.6 1019.8 0.0
23/04:30am 2.9 1.1 1.1 88 0.7 CALM 0 0 0 0 1019.5 1019.7 0.0
23/04:00am 2.7 0.9 0.9 88 0.7 CALM 0 0 0 0 1019.5 1019.7 0.0
23/03:30am 2.8 0.9 0.7 86 0.8 CALM 0 0 0 0 1019.6 1019.8 0.0
23/03:00am 4.2 2.4 1.4 82 1.1 CALM 0 0 0 0 1019.8 1020.0 0.0
23/02:30am 5.1 2.9 1.0 75 1.6 S 2 7 1 4 1019.6 1019.8 0.0
23/02:00am 6.9 4.1 3.0 76 1.6 ENE 7 11 4 6 1019.6 1019.8 0.0
23/01:30am 7.3 2.5 2.6 72 2.0 ESE 17 19 9 10 1019.6 1019.8 0.0
23/01:00am 7.7 2.4 3.0 72 2.0 ESE 20 22 11 12 1019.6 1019.8 0.0
23/12:30am 7.9 2.6 3.0 71 2.1 ESE 20 22 11 12 1019.8 1020.0 0.0
23/12:00am 7.8 2.4 2.7 70 2.1 ESE 20 22 11 12 1019.9 1020.1 0.0
 
Date/Time
EST
Temp
°C
App
Temp
°C
Dew
Point
°C
Rel
Hum
%
Delta-T
°C
Wind Press
QNH
hPa
Press
MSL
hPa
Rain since
9am
mm
Dir  Spd
km/h
Gust
km/h
Spd
kts
Gust
kts
22/11:30pm 8.7 3.4 2.9 67 2.5 ESE 20 24 11 13 1019.9 1020.1 0.0
22/11:00pm 9.1 3.8 3.1 66 2.6 ESE 20 22 11 12 1020.0 1020.2 0.0
22/10:30pm 8.6 3.9 3.0 68 2.4 ESE 17 19 9 10 1020.1 1020.3 0.0
22/10:00pm 8.1 3.3 2.4 67 2.4 E 17 19 9 10 1020.2 1020.4 0.0
22/09:30pm 9.2 4.5 3.0 65 2.7 E 17 19 9 10 1020.1 1020.3 0.0
22/09:00pm 8.5 4.0 2.3 65 2.6 E 15 17 8 9 1020.0 1020.2 0.0
22/08:30pm 9.0 4.5 1.9 61 3.0 ESE 15 17 8 9 1019.8 1020.0 0.0
22/08:00pm 9.7 5.2 2.1 59 3.2 ESE 15 17 8 9 1019.6 1019.8 0.0
22/07:30pm 11.4 7.0 2.7 55 3.8 SE 15 19 8 10 1019.4 1019.6 0.0
22/07:00pm 9.9 6.0 1.0 54 3.7 ESE 11 13 6 7 1019.2 1019.4 0.0
22/06:30pm 12.2 7.9 1.2 47 4.7 ESE 13 15 7 8 1019.0 1019.2 0.0
22/06:00pm 13.0 11.0 -0.3 40 5.5 CALM 0 7 0 4 1018.9 1019.1 0.0
22/05:30pm 18.0 16.0 0.2 30 7.8 CALM 0 0 0 0 1018.7 1018.9 0.0
22/05:00pm 19.9 18.0 0.4 27 8.7 CALM 0 0 0 0 1018.6 1018.8 0.0
22/04:30pm 19.5 17.1 0.0 27 8.6 E 2 7 1 4 1018.5 1018.7 0.0
22/04:00pm 19.3 16.3 0.8 29 8.3 SE 6 11 3 6 1018.3 1018.4 0.0
22/03:30pm 19.5 16.5 0.5 28 8.5 E 6 13 3 7 1018.2 1018.3 0.0
22/03:00pm 19.4 16.3 0.4 28 8.5 E 6 9 3 5 1018.0 1018.1 0.0
22/02:30pm 19.0 14.9 0.1 28 8.3 ESE 11 17 6 9 1017.9 1018.0 0.0
22/02:00pm 18.7 14.8 1.2 31 7.9 E 11 19 6 10 1018.1 1018.2 0.0
22/01:30pm 18.8 15.9 1.3 31 7.9 NE 6 15 3 8 1018.5 1018.7 0.0
22/01:00pm 18.3 14.8 1.3 32 7.6 E 9 17 5 9 1018.7 1018.9 0.0
22/12:30pm 17.6 14.4 0.7 32 7.5 ENE 7 15 4 8 1018.9 1019.1 0.0
22/12:00pm 16.8 12.9 1.3 35 6.9 ESE 11 19 6 10 1019.3 1019.5 0.0
22/11:30am 16.5 11.9 1.8 37 6.6 ESE 15 20 8 11 1019.4 1019.6 0.0
22/11:00am 16.2 11.6 3.9 44 5.7 E 17 24 9 13 1019.4 1019.6 0.0
22/10:30am 14.7 9.5 3.8 48 5.0 ESE 20 24 11 13 1019.3 1019.5 0.0
22/10:00am 13.4 8.9 4.3 54 4.2 ESE 17 22 9 12 1019.4 1019.6 0.0
22/09:30am 12.6 7.6 4.6 58 3.7 ESE 20 26 11 14 1019.2 1019.4 0.0
22/09:00am 11.0 5.6 4.5 64 2.9 ESE 22 28 12 15 1018.7 1018.9 0.0
22/08:30am 9.1 3.3 4.3 72 2.1 ESE 24 30 13 16 1018.6 1018.8 0.0
22/08:00am 7.5 1.3 4.5 81 1.3 ESE 26 32 14 17 1018.3 1018.4 0.0
22/07:30am 5.0 -1.4 3.0 87 0.8 ESE 26 33 14 18 1018.0 1018.1 0.0
22/07:00am 4.8 -2.4 3.1 89 0.7 ESE 30 37 16 20 1017.8 1017.9 0.0
22/06:30am 4.3 -2.9 3.1 92 0.5 ESE 30 32 16 17 1017.2 1017.3 0.0
22/06:00am 4.0 -2.9 2.8 92 0.5 ESE 28 32 15 17 1016.8 1016.9 0.0
22/05:30am 4.4 -2.4 3.1 91 0.5 ESE 28 32 15 17 1016.6 1016.7 0.0
22/05:00am 4.4 -2.4 3.1 91 0.5 ESE 28 32 15 17 1016.4 1016.5 0.0
22/04:30am 4.6 -1.8 3.1 90 0.6 ESE 26 30 14 16 1016.1 1016.2 0.0
22/04:00am 4.6 -1.0 3.6 93 0.4 ESE 22 28 12 15 1016.0 1016.1 0.0
22/03:30am 4.5 -0.5 3.5 93 0.4 ESE 19 24 10 13 1015.9 1016.0 0.0
22/03:00am 4.9 -0.3 3.6 91 0.5 ESE 20 24 11 13 1015.8 1015.9 0.0
22/02:30am 5.6 0.5 3.9 89 0.7 SE 20 26 11 14 1015.8 1015.9 0.0
22/02:00am 5.6 0.7 4.1 90 0.6 SE 19 26 10 14 1015.9 1016.0 0.0
22/01:30am 5.9 0.9 4.4 90 0.6 ESE 20 26 11 14 1016.0 1016.1 0.0
22/01:00am 6.6 1.7 5.1 90 0.7 SE 20 24 11 13 1016.1 1016.2 0.0
22/12:30am 6.1 1.1 4.6 90 0.7 ESE 20 24 11 13 1015.9 1016.0 0.0
22/12:00am 6.5 0.8 4.7 88 0.8 ESE 24 26 13 14 1015.9 1016.0 0.0
 
Date/Time
EST
Temp
°C
App
Temp
°C
Dew
Point
°C
Rel
Hum
%
Delta-T
°C
Wind Press
QNH
hPa
Press
MSL
hPa
Rain since
9am
mm
Dir  Spd
km/h
Gust
km/h
Spd
kts
Gust
kts
21/11:30pm 7.2 1.1 4.9 85 1.0 ESE 26 30 14 16 1016.0 1016.1 0.0
21/11:00pm 8.0 2.3 4.8 80 1.4 ESE 24 28 13 15 1016.1 1016.2 0.0
21/10:30pm 8.9 3.1 4.5 74 2.0 ESE 24 28 13 15 1016.1 1016.2 0.0
21/10:00pm 9.3 3.8 3.9 69 2.4 E 22 28 12 15 1015.5 1015.7 0.0
21/09:30pm 9.5 3.7 4.3 70 2.3 E 24 28 13 15 1015.4 1015.6 0.0
21/09:00pm 9.2 3.9 4.8 74 2.0 E 22 30 12 16 1015.5 1015.7 0.0
21/08:30pm 9.2 4.3 5.2 76 1.8 E 20 24 11 13 1015.5 1015.7 0.0
21/08:00pm 9.2 3.9 5.0 75 1.9 E 22 28 12 15 1015.2 1015.4 0.0
21/07:30pm 9.4 4.4 4.8 73 2.1 ESE 20 26 11 14 1015.3 1015.5 0.0
21/07:00pm 9.8 4.8 4.6 70 2.3 ESE 20 28 11 15 1015.4 1015.6 0.0
21/06:30pm 10.2 4.3 4.1 66 2.7 E 24 28 13 15 1015.3 1015.5 0.0
21/06:00pm 10.7 5.8 4.2 64 2.9 ESE 19 22 10 12 1015.1 1015.3 0.0
21/05:30pm 11.4 6.3 3.2 57 3.6 ESE 19 26 10 14 1014.6 1014.8 0.0
21/05:00pm 12.7 6.7 3.1 52 4.3 ESE 24 30 13 16 1013.9 1014.1 0.0
21/04:30pm 12.8 7.1 2.9 51 4.4 ESE 22 28 12 15 1013.7 1013.9 0.0
21/04:00pm 13.4 7.6 2.3 47 4.9 ESE 22 30 12 16 1013.5 1013.7 0.0
21/03:30pm 14.1 8.6 2.0 44 5.3 ESE 20 26 11 14 1013.6 1013.8 0.0
21/03:00pm 14.0 8.7 1.6 43 5.4 ESE 19 24 10 13 1013.8 1014.0 0.0
21/02:30pm 14.5 9.9 -1.2 34 6.5 NE 13 19 7 10 1013.7 1013.9 0.0
21/02:00pm 14.8 10.1 0.6 38 6.1 NE 15 22 8 12 1013.9 1014.1 0.0
21/01:30pm 14.2 9.4 0.1 38 6.0 NNE 15 19 8 10 1014.2 1014.4 0.0
21/01:00pm 14.1 8.9 0.4 39 5.8 N 17 22 9 12 1014.8 1015.0 0.0
21/12:30pm 13.7 8.4 2.0 45 5.1 NNW 19 30 10 16 1015.5 1015.7 0.0
21/12:00pm 13.1 8.7 2.6 49 4.6 N 15 20 8 11 1016.2 1016.3 0.0
21/11:30am 12.9 7.7 0.3 42 5.3 N 17 24 9 13 1016.1 1016.2 0.0
21/11:00am 12.8 6.1 -0.8 39 5.6 N 24 33 13 18 1015.8 1015.9 0.0
21/10:30am 13.4 5.0 -2.1 34 6.2 N 32 41 17 22 1016.1 1016.2 0.0
21/10:00am 13.4 5.9 -1.7 35 6.1 N 28 43 15 23 1016.4 1016.5 0.0
21/09:30am 13.6 8.2 1.3 43 5.3 NNE 19 26 10 14 1016.7 1016.8 0.0
21/09:00am 12.5 7.8 1.2 46 4.8 NE 15 19 8 10 1016.9 1017.0 0.2
21/08:30am 10.3 5.4 2.2 57 3.5 NE 17 24 9 13 1016.6 1016.7 0.2
21/08:00am 8.7 6.4 4.7 76 1.8 N 6 9 3 5 1017.6 1017.7 0.2
21/07:30am 8.6 2.1 2.8 67 2.5 NNW 26 37 14 20 1017.6 1017.7 0.2

Other Formats:

Comma delimited format used in spreadsheet applications
http://www.bom.gov.au/fwo/IDN60801/IDN60801.95704.axf

JavaScript Object Notation format (JSON) in row-major order
http://www.bom.gov.au/fwo/IDN60801/IDN60801.95704.json